Wetterdaten: aktuell Samstag, 23.01.2021 16:10
Datum Zeit Temp. A. Temp. A. min Temp. A. max Feuchte A. Luftdruck Regen Wind Richtung Richtung Sonnenschein UV Solar Windben
23.01.2021 16:10 5,8 C 5,8 C 5,9 C 76 % 994,8 hPa 0,0 l/m 1,6 km/h (1 Bft) S 180 0 min 0,0 UV-I 40 W/m 4,8 km/h (1 Bft)
23.01.2021 16:05 5,8 C 5,8 C 5,8 C 77 % 994,8 hPa 0,0 l/m 0,0 km/h (0 Bft) SW 225 0 min 0,0 UV-I 46 W/m 3,2 km/h (1 Bft)
23.01.2021 16:00 5,8 C 5,8 C 5,8 C 76 % 994,8 hPa 0,0 l/m 0,0 km/h (0 Bft) SW 225 0 min 0,0 UV-I 49 W/m 3,2 km/h (1 Bft)
23.01.2021 15:55 5,8 C 5,8 C 5,8 C 76 % 994,9 hPa 0,0 l/m 0,0 km/h (0 Bft) SW 225 0 min 0,0 UV-I 53 W/m 1,6 km/h (1 Bft)
23.01.2021 15:50 5,8 C 5,8 C 5,8 C 77 % 994,9 hPa 0,0 l/m 1,6 km/h (1 Bft) SW 225 0 min 0,0 UV-I 53 W/m 4,8 km/h (1 Bft)
23.01.2021 15:45 5,8 C 5,8 C 5,8 C 77 % 994,9 hPa 0,0 l/m 3,2 km/h (1 Bft) SW 225 0 min 0,0 UV-I 58 W/m 6,4 km/h (2 Bft)
23.01.2021 15:40 5,8 C 5,8 C 5,9 C 78 % 994,8 hPa 0,0 l/m 4,8 km/h (1 Bft) SW 225 0 min 0,0 UV-I 74 W/m 11,3 km/h (2 Bft)
23.01.2021 15:35 5,8 C 5,8 C 6,0 C 78 % 994,8 hPa 0,0 l/m 8,0 km/h (2 Bft) SW 225 0 min 0,0 UV-I 76 W/m 14,5 km/h (3 Bft)
23.01.2021 15:30 6,0 C 6,0 C 6,2 C 77 % 994,8 hPa 0,0 l/m 6,4 km/h (2 Bft) SW 225 0 min 0,0 UV-I 74 W/m 9,7 km/h (2 Bft)
23.01.2021 15:25 6,2 C 6,2 C 6,5 C 76 % 994,9 hPa 0,0 l/m 8,0 km/h (2 Bft) SW 225 0 min 0,0 UV-I 74 W/m 16,1 km/h (3 Bft)
23.01.2021 15:20 6,5 C 6,5 C 6,7 C 76 % 994,8 hPa 0,0 l/m 4,8 km/h (1 Bft) SW 225 0 min 0,0 UV-I 74 W/m 9,7 km/h (2 Bft)
23.01.2021 15:15 6,7 C 6,7 C 6,8 C 73 % 994,8 hPa 0,0 l/m 4,8 km/h (1 Bft) S-SW 202 0 min 0,0 UV-I 74 W/m 8,0 km/h (2 Bft)
23.01.2021 15:10 6,8 C 6,8 C 6,9 C 73 % 994,8 hPa 0,0 l/m 3,2 km/h (1 Bft) S 180 0 min 0,0 UV-I 70 W/m 6,4 km/h (2 Bft)
23.01.2021 15:05 6,9 C 6,9 C 7,1 C 74 % 994,9 hPa 0,0 l/m 3,2 km/h (1 Bft) SW 225 0 min 0,0 UV-I 76 W/m 8,0 km/h (2 Bft)
23.01.2021 15:00 7,1 C 7,1 C 7,1 C 72 % 994,9 hPa 0,0 l/m 6,4 km/h (2 Bft) S-SW 202 5 min 0,5 UV-I 144 W/m 11,3 km/h (2 Bft)
23.01.2021 14:55 7,1 C 7,1 C 7,1 C 72 % 994,9 hPa 0,0 l/m 4,8 km/h (1 Bft) S 180 5 min 0,5 UV-I 188 W/m 9,7 km/h (2 Bft)
23.01.2021 14:50 7,1 C 7,0 C 7,1 C 72 % 994,9 hPa 0,0 l/m 4,8 km/h (1 Bft) SO 135 5 min 0,5 UV-I 190 W/m 9,7 km/h (2 Bft)
23.01.2021 14:45 7,0 C 6,8 C 7,0 C 73 % 995,0 hPa 0,0 l/m 6,4 km/h (2 Bft) S 180 5 min 0,5 UV-I 207 W/m 12,9 km/h (3 Bft)
23.01.2021 14:40 6,7 C 6,6 C 6,8 C 75 % 995,0 hPa 0,0 l/m 1,6 km/h (1 Bft) S 180 5 min 0,6 UV-I 216 W/m 11,3 km/h (2 Bft)
23.01.2021 14:35 6,6 C 6,4 C 6,6 C 74 % 995,0 hPa 0,0 l/m 4,8 km/h (1 Bft) S-SW 202 5 min 0,6 UV-I 227 W/m 11,3 km/h (2 Bft)
23.01.2021 14:30 6,3 C 6,2 C 6,3 C 75 % 995,3 hPa 0,0 l/m 6,4 km/h (2 Bft) S 180 5 min 0,6 UV-I 214 W/m 11,3 km/h (2 Bft)
23.01.2021 14:25 6,2 C 6,1 C 6,2 C 75 % 995,3 hPa 0,0 l/m 8,0 km/h (2 Bft) S-SW 202 5 min 0,6 UV-I 199 W/m 16,1 km/h (3 Bft)
23.01.2021 14:20 6,0 C 5,9 C 6,1 C 76 % 995,4 hPa 0,0 l/m 8,0 km/h (2 Bft) S 180 5 min 0,5 UV-I 162 W/m 16,1 km/h (3 Bft)
23.01.2021 14:15 5,9 C 5,9 C 6,0 C 77 % 995,5 hPa 0,0 l/m 6,4 km/h (2 Bft) S-SW 202 0 min 0,5 UV-I 114 W/m 12,9 km/h (3 Bft)
23.01.2021 14:10 6,0 C 5,9 C 6,0 C 77 % 995,5 hPa 0,0 l/m 8,0 km/h (2 Bft) S-SW 202 0 min 0,5 UV-I 109 W/m 11,3 km/h (2 Bft)
23.01.2021 14:05 5,9 C 5,9 C 5,9 C 76 % 995,5 hPa 0,0 l/m 6,4 km/h (2 Bft) S-SW 202 0 min 0,5 UV-I 109 W/m 12,9 km/h (3 Bft)
23.01.2021 14:00 5,9 C 5,8 C 5,9 C 76 % 995,6 hPa 0,0 l/m 8,0 km/h (2 Bft) S-SW 202 0 min 0,5 UV-I 102 W/m 12,9 km/h (3 Bft)
23.01.2021 13:55 5,8 C 5,8 C 5,9 C 77 % 995,7 hPa 0,0 l/m 8,0 km/h (2 Bft) S 180 0 min 0,0 UV-I 83 W/m 14,5 km/h (3 Bft)
23.01.2021 13:50 5,8 C 5,8 C 5,9 C 78 % 995,8 hPa 0,0 l/m 9,7 km/h (2 Bft) S-SW 202 0 min 0,0 UV-I 63 W/m 16,1 km/h (3 Bft)
23.01.2021 13:45 5,9 C 5,9 C 5,9 C 78 % 995,8 hPa 0,0 l/m 8,0 km/h (2 Bft) S-SW 202 0 min 0,0 UV-I 72 W/m 14,5 km/h (3 Bft)
23.01.2021 13:40 5,9 C 5,9 C 5,9 C 79 % 996,0 hPa 0,0 l/m 8,0 km/h (2 Bft) S-SW 202 0 min 0,0 UV-I 83 W/m 12,9 km/h (3 Bft)
23.01.2021 13:35 5,9 C 5,9 C 5,9 C 78 % 996,0 hPa 0,0 l/m 11,3 km/h (2 Bft) S-SW 202 0 min 0,0 UV-I 90 W/m 20,9 km/h (4 Bft)
23.01.2021 13:30 5,9 C 5,9 C 5,9 C 79 % 996,0 hPa 0,0 l/m 9,7 km/h (2 Bft) S-SW 202 0 min 0,0 UV-I 97 W/m 14,5 km/h (3 Bft)
23.01.2021 13:25 5,9 C 5,9 C 5,9 C 78 % 996,1 hPa 0,0 l/m 9,7 km/h (2 Bft) S-SW 202 0 min 0,0 UV-I 91 W/m 16,1 km/h (3 Bft)
23.01.2021 13:20 5,9 C 5,8 C 5,9 C 78 % 996,2 hPa 0,0 l/m 9,7 km/h (2 Bft) S-SW 202 0 min 0,5 UV-I 109 W/m 17,7 km/h (3 Bft)
23.01.2021 13:15 5,9 C 5,8 C 5,9 C 78 % 996,2 hPa 0,0 l/m 9,7 km/h (2 Bft) S-SW 202 0 min 0,6 UV-I 135 W/m 17,7 km/h (3 Bft)
23.01.2021 13:10 5,8 C 5,8 C 5,9 C 78 % 996,3 hPa 0,0 l/m 8,0 km/h (2 Bft) S-SW 202 0 min 0,7 UV-I 134 W/m 16,1 km/h (3 Bft)
23.01.2021 13:05 5,9 C 5,8 C 5,9 C 79 % 996,4 hPa 0,0 l/m 6,4 km/h (2 Bft) S 180 0 min 0,7 UV-I 128 W/m 17,7 km/h (3 Bft)
23.01.2021 13:00 5,8 C 5,8 C 5,9 C 78 % 996,5 hPa 0,0 l/m 11,3 km/h (2 Bft) S-SW 202 5 min 0,8 UV-I 214 W/m 20,9 km/h (4 Bft)
23.01.2021 12:55 5,8 C 5,6 C 5,8 C 79 % 996,6 hPa 0,0 l/m 9,7 km/h (2 Bft) S 180 5 min 0,8 UV-I 220 W/m 19,3 km/h (3 Bft)
23.01.2021 12:50 5,6 C 5,4 C 5,6 C 81 % 996,7 hPa 0,0 l/m 8,0 km/h (2 Bft) S 180 5 min 0,8 UV-I 244 W/m 14,5 km/h (3 Bft)
23.01.2021 12:45 5,3 C 5,2 C 5,4 C 82 % 996,6 hPa 0,0 l/m 8,0 km/h (2 Bft) S 180 5 min 0,9 UV-I 301 W/m 12,9 km/h (3 Bft)
23.01.2021 12:40 5,2 C 5,1 C 5,2 C 82 % 996,6 hPa 0,0 l/m 8,0 km/h (2 Bft) S 180 0 min 0,9 UV-I 84 W/m 16,1 km/h (3 Bft)
23.01.2021 12:35 5,2 C 5,1 C 5,2 C 82 % 996,7 hPa 0,0 l/m 8,0 km/h (2 Bft) S 180 0 min 0,6 UV-I 79 W/m 16,1 km/h (3 Bft)
23.01.2021 12:30 5,1 C 5,1 C 5,1 C 82 % 996,8 hPa 0,0 l/m 9,7 km/h (2 Bft) S 180 0 min 0,6 UV-I 121 W/m 20,9 km/h (4 Bft)
23.01.2021 12:25 5,1 C 5,0 C 5,1 C 83 % 996,9 hPa 0,0 l/m 8,0 km/h (2 Bft) S 180 0 min 0,6 UV-I 120 W/m 14,5 km/h (3 Bft)
23.01.2021 12:20 5,0 C 4,9 C 5,0 C 83 % 996,9 hPa 0,0 l/m 9,7 km/h (2 Bft) S 180 0 min 0,5 UV-I 100 W/m 16,1 km/h (3 Bft)
23.01.2021 12:15 4,9 C 4,8 C 4,9 C 84 % 996,9 hPa 0,0 l/m 8,0 km/h (2 Bft) S 180 0 min 0,5 UV-I 111 W/m 16,1 km/h (3 Bft)
23.01.2021 12:10 4,8 C 4,8 C 4,9 C 84 % 996,9 hPa 0,0 l/m 8,0 km/h (2 Bft) S 180 0 min 0,0 UV-I 98 W/m 17,7 km/h (3 Bft)
23.01.2021 12:05 4,8 C 4,7 C 4,8 C 84 % 997,0 hPa 0,0 l/m 8,0 km/h (2 Bft) S 180 0 min 0,0 UV-I 81 W/m 16,1 km/h (3 Bft)
23.01.2021 12:00 4,7 C 4,7 C 4,8 C 84 % 997,1 hPa 0,0 l/m 6,4 km/h (2 Bft) S 180 0 min 0,0 UV-I 93 W/m 12,9 km/h (3 Bft)
23.01.2021 11:55 4,7 C 4,6 C 4,7 C 85 % 997,1 hPa 0,0 l/m 8,0 km/h (2 Bft) S-SO 157 0 min 0,0 UV-I 93 W/m 14,5 km/h (3 Bft)
23.01.2021 11:50 4,6 C 4,5 C 4,6 C 85 % 997,1 hPa 0,0 l/m 8,0 km/h (2 Bft) S-SO 157 0 min 0,0 UV-I 116 W/m 16,1 km/h (3 Bft)
23.01.2021 11:45 4,5 C 4,4 C 4,5 C 85 % 997,2 hPa 0,0 l/m 9,7 km/h (2 Bft) S 180 0 min 0,0 UV-I 95 W/m 14,5 km/h (3 Bft)
23.01.2021 11:40 4,4 C 4,3 C 4,4 C 85 % 997,2 hPa 0,0 l/m 9,7 km/h (2 Bft) S-SO 157 0 min 0,0 UV-I 83 W/m 16,1 km/h (3 Bft)
23.01.2021 11:35 4,3 C 4,2 C 4,3 C 86 % 997,2 hPa 0,0 l/m 8,0 km/h (2 Bft) S-SO 157 0 min 0,0 UV-I 86 W/m 14,5 km/h (3 Bft)
23.01.2021 11:30 4,2 C 4,2 C 4,2 C 86 % 997,2 hPa 0,0 l/m 8,0 km/h (2 Bft) S 180 0 min 0,0 UV-I 90 W/m 16,1 km/h (3 Bft)
23.01.2021 11:25 4,2 C 4,1 C 4,2 C 86 % 997,3 hPa 0,0 l/m 6,4 km/h (2 Bft) S-SO 157 0 min 0,0 UV-I 84 W/m 16,1 km/h (3 Bft)
23.01.2021 11:20 4,1 C 4,1 C 4,1 C 86 % 997,3 hPa 0,0 l/m 8,0 km/h (2 Bft) S-SO 157 0 min 0,0 UV-I 70 W/m 11,3 km/h (2 Bft)
23.01.2021 11:15 4,1 C 4,0 C 4,1 C 86 % 997,4 hPa 0,0 l/m 6,4 km/h (2 Bft) S 180 0 min 0,0 UV-I 67 W/m 14,5 km/h (3 Bft)
23.01.2021 11:10 4,0 C 3,9 C 4,0 C 86 % 997,4 hPa 0,0 l/m 6,4 km/h (2 Bft) S-SO 157 0 min 0,0 UV-I 47 W/m 11,3 km/h (2 Bft)
23.01.2021 11:05 3,9 C 3,9 C 3,9 C 86 % 997,5 hPa 0,0 l/m 8,0 km/h (2 Bft) S-SO 157 0 min 0,0 UV-I 35 W/m 14,5 km/h (3 Bft)
23.01.2021 11:00 3,9 C 3,8 C 3,9 C 86 % 997,5 hPa 0,0 l/m 8,0 km/h (2 Bft) S-SO 157 0 min 0,0 UV-I 26 W/m 11,3 km/h (2 Bft)
23.01.2021 10:55 3,8 C 3,8 C 3,9 C 86 % 997,5 hPa 0,0 l/m 9,7 km/h (2 Bft) S-SO 157 0 min 0,0 UV-I 26 W/m 20,9 km/h (4 Bft)
23.01.2021 10:50 3,8 C 3,8 C 3,8 C 86 % 997,4 hPa 0,0 l/m 8,0 km/h (2 Bft) S-SO 157 0 min 0,0 UV-I 26 W/m 12,9 km/h (3 Bft)
23.01.2021 10:45 3,8 C 3,8 C 3,8 C 87 % 997,5 hPa 0,0 l/m 8,0 km/h (2 Bft) S-SO 157 0 min 0,0 UV-I 25 W/m 16,1 km/h (3 Bft)
23.01.2021 10:40 3,8 C 3,7 C 3,8 C 87 % 997,4 hPa 0,0 l/m 8,0 km/h (2 Bft) S-SO 157 0 min 0,0 UV-I 28 W/m 14,5 km/h (3 Bft)
23.01.2021 10:35 3,7 C 3,7 C 3,7 C 87 % 997,4 hPa 0,0 l/m 8,0 km/h (2 Bft) S 180 0 min 0,0 UV-I 30 W/m 14,5 km/h (3 Bft)
23.01.2021 10:30 3,7 C 3,7 C 3,7 C 87 % 997,4 hPa 0,0 l/m 9,7 km/h (2 Bft) S-SO 157 0 min 0,0 UV-I 28 W/m 17,7 km/h (3 Bft)
23.01.2021 10:25 3,7 C 3,6 C 3,7 C 87 % 997,3 hPa 0,0 l/m 8,0 km/h (2 Bft) S 180 0 min 0,0 UV-I 25 W/m 14,5 km/h (3 Bft)
23.01.2021 10:20 3,6 C 3,6 C 3,6 C 87 % 997,4 hPa 0,0 l/m 9,7 km/h (2 Bft) S-SO 157 0 min 0,0 UV-I 21 W/m 16,1 km/h (3 Bft)
23.01.2021 10:15 3,6 C 3,5 C 3,6 C 87 % 997,5 hPa 0,0 l/m 9,7 km/h (2 Bft) S-SO 157 0 min 0,0 UV-I 32 W/m 17,7 km/h (3 Bft)
23.01.2021 10:10 3,5 C 3,4 C 3,6 C 87 % 997,4 hPa 0,0 l/m 9,7 km/h (2 Bft) S-SO 157 0 min 0,0 UV-I 26 W/m 16,1 km/h (3 Bft)
23.01.2021 10:05 3,4 C 3,4 C 3,5 C 87 % 997,4 hPa 0,0 l/m 12,9 km/h (3 Bft) S-SO 157 0 min 0,0 UV-I 23 W/m 19,3 km/h (3 Bft)
23.01.2021 10:00 3,4 C 3,3 C 3,4 C 87 % 997,4 hPa 0,0 l/m 9,7 km/h (2 Bft) S 180 0 min 0,0 UV-I 23 W/m 17,7 km/h (3 Bft)
23.01.2021 09:55 3,4 C 3,3 C 3,4 C 87 % 997,5 hPa 0,0 l/m 9,7 km/h (2 Bft) S 180 0 min 0,0 UV-I 18 W/m 16,1 km/h (3 Bft)
23.01.2021 09:50 3,3 C 3,3 C 3,3 C 87 % 997,5 hPa 0,0 l/m 9,7 km/h (2 Bft) S-SO 157 0 min 0,0 UV-I 14 W/m 14,5 km/h (3 Bft)
23.01.2021 09:45 3,3 C 3,2 C 3,3 C 88 % 997,4 hPa 0,0 l/m 9,7 km/h (2 Bft) S-SO 157 0 min 0,0 UV-I 11 W/m 20,9 km/h (4 Bft)
23.01.2021 09:40 3,2 C 3,2 C 3,2 C 88 % 997,5 hPa 0,0 l/m 9,7 km/h (2 Bft) S-SO 157 0 min 0,0 UV-I 11 W/m 17,7 km/h (3 Bft)
23.01.2021 09:35 3,2 C 3,1 C 3,2 C 88 % 997,5 hPa 0,0 l/m 8,0 km/h (2 Bft) S-SO 157 0 min 0,0 UV-I 11 W/m 14,5 km/h (3 Bft)
23.01.2021 09:30 3,1 C 3,0 C 3,1 C 88 % 997,4 hPa 0,0 l/m 8,0 km/h (2 Bft) S-SO 157 0 min 0,0 UV-I 12 W/m 16,1 km/h (3 Bft)
23.01.2021 09:25 3,0 C 2,9 C 3,0 C 88 % 997,4 hPa 0,0 l/m 8,0 km/h (2 Bft) S-SO 157 0 min 0,0 UV-I 12 W/m 16,1 km/h (3 Bft)
23.01.2021 09:20 2,9 C 2,8 C 2,9 C 88 % 997,4 hPa 0,0 l/m 8,0 km/h (2 Bft) S-SO 157 0 min 0,0 UV-I 21 W/m 16,1 km/h (3 Bft)
23.01.2021 09:15 2,8 C 2,8 C 2,9 C 88 % 997,3 hPa 0,0 l/m 8,0 km/h (2 Bft) S-SO 157 0 min 0,0 UV-I 26 W/m 14,5 km/h (3 Bft)
23.01.2021 09:10 2,8 C 2,8 C 2,8 C 88 % 997,4 hPa 0,0 l/m 8,0 km/h (2 Bft) S-SO 157 0 min 0,0 UV-I 26 W/m 17,7 km/h (3 Bft)
23.01.2021 09:05 2,8 C 2,8 C 2,8 C 88 % 997,3 hPa 0,0 l/m 8,0 km/h (2 Bft) S-SO 157 0 min 0,0 UV-I 18 W/m 17,7 km/h (3 Bft)
23.01.2021 09:00 2,8 C 2,8 C 2,8 C 88 % 997,4 hPa 0,0 l/m 9,7 km/h (2 Bft) SO 135 0 min 0,0 UV-I 14 W/m 16,1 km/h (3 Bft)
23.01.2021 08:55 2,8 C 2,8 C 2,8 C 88 % 997,5 hPa 0,0 l/m 8,0 km/h (2 Bft) S-SO 157 0 min 0,0 UV-I 12 W/m 17,7 km/h (3 Bft)
23.01.2021 08:50 2,8 C 2,8 C 2,8 C 88 % 997,4 hPa 0,0 l/m 11,3 km/h (2 Bft) S-SO 157 0 min 0,0 UV-I 7 W/m 20,9 km/h (4 Bft)
23.01.2021 08:45 2,8 C 2,8 C 2,8 C 88 % 997,5 hPa 0,0 l/m 9,7 km/h (2 Bft) S-SO 157 0 min 0,0 UV-I 7 W/m 17,7 km/h (3 Bft)
23.01.2021 08:40 2,8 C 2,8 C 2,8 C 88 % 997,5 hPa 0,0 l/m 9,7 km/h (2 Bft) S-SO 157 0 min 0,0 UV-I 5 W/m 19,3 km/h (3 Bft)
23.01.2021 08:35 2,8 C 2,8 C 2,8 C 88 % 997,5 hPa 0,0 l/m 8,0 km/h (2 Bft) S-SO 157 0 min 0,0 UV-I 0 W/m 16,1 km/h (3 Bft)
23.01.2021 08:30 2,8 C 2,8 C 2,8 C 88 % 997,5 hPa 0,0 l/m 6,4 km/h (2 Bft) S-SO 157 0 min 0,0 UV-I 0 W/m 19,3 km/h (3 Bft)
23.01.2021 08:25 2,8 C 2,8 C 2,8 C 88 % 997,5 hPa 0,0 l/m 9,7 km/h (2 Bft) S-SO 157 0 min 0,0 UV-I 0 W/m 19,3 km/h (3 Bft)
23.01.2021 08:20 2,8 C 2,8 C 2,8 C 88 % 997,6 hPa 0,0 l/m 6,4 km/h (2 Bft) S-SO 157 0 min 0,0 UV-I 0 W/m 19,3 km/h (3 Bft)
23.01.2021 08:15 2,8 C 2,8 C 2,8 C 88 % 997,5 hPa 0,0 l/m 8,0 km/h (2 Bft) S-SO 157 0 min 0,0 UV-I 0 W/m 19,3 km/h (3 Bft)
23.01.2021 08:10 2,8 C 2,8 C 2,8 C 88 % 997,5 hPa 0,0 l/m 8,0 km/h (2 Bft) S-SO 157 0 min 0,0 UV-I 0 W/m 17,7 km/h (3 Bft)
23.01.2021 08:05 2,8 C 2,8 C 2,8 C 88 % 997,3 hPa 0,0 l/m 8,0 km/h (2 Bft) S-SO 157 0 min 0,0 UV-I 0 W/m 14,5 km/h (3 Bft)
23.01.2021 08:00 2,8 C 2,7 C 2,8 C 88 % 997,4 hPa 0,0 l/m 6,4 km/h (2 Bft) S-SO 157 0 min 0,0 UV-I 0 W/m 12,9 km/h (3 Bft)
23.01.2021 07:55 2,8 C 2,7 C 2,8 C 88 % 997,5 hPa 0,0 l/m 9,7 km/h (2 Bft) S-SO 157 0 min 0,0 UV-I 0 W/m 16,1 km/h (3 Bft)
23.01.2021 07:50 2,7 C 2,7 C 2,7 C 88 % 997,5 hPa 0,0 l/m 8,0 km/h (2 Bft) SO 135 0 min 0,0 UV-I 0 W/m 17,7 km/h (3 Bft)
23.01.2021 07:45 2,7 C 2,7 C 2,7 C 88 % 997,4 hPa 0,0 l/m 9,7 km/h (2 Bft) S-SO 157 0 min 0,0 UV-I 0 W/m 16,1 km/h (3 Bft)
23.01.2021 07:40 2,7 C 2,7 C 2,7 C 88 % 997,4 hPa 0,0 l/m 6,4 km/h (2 Bft) S-SO 157 0 min 0,0 UV-I 0 W/m 12,9 km/h (3 Bft)
23.01.2021 07:35 2,7 C 2,7 C 2,7 C 88 % 997,4 hPa 0,0 l/m 9,7 km/h (2 Bft) S-SO 157 0 min 0,0 UV-I 0 W/m 17,7 km/h (3 Bft)
23.01.2021 07:30 2,7 C 2,7 C 2,7 C 88 % 997,5 hPa 0,0 l/m 9,7 km/h (2 Bft) S-SO 157 0 min 0,0 UV-I 0 W/m 19,3 km/h (3 Bft)
23.01.2021 07:25 2,7 C 2,6 C 2,7 C 88 % 997,3 hPa 0,0 l/m 8,0 km/h (2 Bft) S-SO 157 0 min 0,0 UV-I 0 W/m 14,5 km/h (3 Bft)
23.01.2021 07:20 2,7 C 2,6 C 2,7 C 88 % 997,3 hPa 0,0 l/m 8,0 km/h (2 Bft) S-SO 157 0 min 0,0 UV-I 0 W/m 19,3 km/h (3 Bft)
23.01.2021 07:15 2,7 C 2,6 C 2,7 C 88 % 997,2 hPa 0,0 l/m 9,7 km/h (2 Bft) S-SO 157 0 min 0,0 UV-I 0 W/m 14,5 km/h (3 Bft)
23.01.2021 07:10 2,7 C 2,6 C 2,7 C 88 % 997,3 hPa 0,0 l/m 9,7 km/h (2 Bft) S-SO 157 0 min 0,0 UV-I 0 W/m 16,1 km/h (3 Bft)
23.01.2021 07:05 2,6 C 2,6 C 2,6 C 88 % 997,3 hPa 0,0 l/m 9,7 km/h (2 Bft) S-SO 157 0 min 0,0 UV-I 0 W/m 17,7 km/h (3 Bft)
23.01.2021 07:00 2,6 C 2,5 C 2,6 C 88 % 997,2 hPa 0,0 l/m 9,7 km/h (2 Bft) S-SO 157 0 min 0,0 UV-I 0 W/m 14,5 km/h (3 Bft)
23.01.2021 06:55 2,5 C 2,4 C 2,6 C 88 % 997,2 hPa 0,0 l/m 9,7 km/h (2 Bft) S-SO 157 0 min 0,0 UV-I 0 W/m 16,1 km/h (3 Bft)
23.01.2021 06:50 2,4 C 2,4 C 2,4 C 88 % 997,3 hPa 0,0 l/m 9,7 km/h (2 Bft) S 180 0 min 0,0 UV-I 0 W/m 17,7 km/h (3 Bft)
23.01.2021 06:45 2,4 C 2,4 C 2,4 C 88 % 997,2 hPa 0,0 l/m 9,7 km/h (2 Bft) S-SO 157 0 min 0,0 UV-I 0 W/m 17,7 km/h (3 Bft)
23.01.2021 06:40 2,4 C 2,3 C 2,4 C 88 % 997,2 hPa 0,0 l/m 9,7 km/h (2 Bft) S-SO 157 0 min 0,0 UV-I 0 W/m 19,3 km/h (3 Bft)
23.01.2021 06:35 2,4 C 2,3 C 2,4 C 88 % 997,3 hPa 0,0 l/m 9,7 km/h (2 Bft) S-SO 157 0 min 0,0 UV-I 0 W/m 17,7 km/h (3 Bft)
23.01.2021 06:30 2,3 C 2,3 C 2,3 C 88 % 997,2 hPa 0,0 l/m 9,7 km/h (2 Bft) S-SO 157 0 min 0,0 UV-I 0 W/m 16,1 km/h (3 Bft)
23.01.2021 06:25 2,3 C 2,3 C 2,3 C 88 % 997,2 hPa 0,0 l/m 8,0 km/h (2 Bft) S 180 0 min 0,0 UV-I 0 W/m 12,9 km/h (3 Bft)
23.01.2021 06:20 2,3 C 2,2 C 2,3 C 88 % 997,2 hPa 0,0 l/m 8,0 km/h (2 Bft) S-SO 157 0 min 0,0 UV-I 0 W/m 14,5 km/h (3 Bft)
23.01.2021 06:15 2,2 C 2,2 C 2,2 C 88 % 997,3 hPa 0,0 l/m 9,7 km/h (2 Bft) S-SO 157 0 min 0,0 UV-I 0 W/m 16,1 km/h (3 Bft)
23.01.2021 06:10 2,2 C 2,2 C 2,2 C 88 % 997,2 hPa 0,0 l/m 8,0 km/h (2 Bft) S-SO 157 0 min 0,0 UV-I 0 W/m 16,1 km/h (3 Bft)
23.01.2021 06:05 2,2 C 2,1 C 2,2 C 88 % 997,2 hPa 0,0 l/m 8,0 km/h (2 Bft) S 180 0 min 0,0 UV-I 0 W/m 16,1 km/h (3 Bft)
23.01.2021 06:00 2,1 C 2,1 C 2,2 C 89 % 997,2 hPa 0,0 l/m 9,7 km/h (2 Bft) S 180 0 min 0,0 UV-I 0 W/m 16,1 km/h (3 Bft)
23.01.2021 05:55 2,1 C 2,0 C 2,1 C 89 % 997,4 hPa 0,0 l/m 9,7 km/h (2 Bft) S-SO 157 0 min 0,0 UV-I 0 W/m 17,7 km/h (3 Bft)
23.01.2021 05:50 2,0 C 1,9 C 2,1 C 89 % 997,4 hPa 0,0 l/m 9,7 km/h (2 Bft) S-SO 157 0 min 0,0 UV-I 0 W/m 19,3 km/h (3 Bft)
23.01.2021 05:45 2,0 C 1,9 C 2,0 C 89 % 997,4 hPa 0,0 l/m 9,7 km/h (2 Bft) S-SO 157 0 min 0,0 UV-I 0 W/m 20,9 km/h (4 Bft)
23.01.2021 05:40 1,9 C 1,9 C 1,9 C 89 % 997,5 hPa 0,0 l/m 9,7 km/h (2 Bft) S-SO 157 0 min 0,0 UV-I 0 W/m 16,1 km/h (3 Bft)
23.01.2021 05:35 1,9 C 1,8 C 1,9 C 89 % 997,6 hPa 0,0 l/m 9,7 km/h (2 Bft) S 180 0 min 0,0 UV-I 0 W/m 17,7 km/h (3 Bft)
23.01.2021 05:30 1,8 C 1,7 C 1,8 C 89 % 997,7 hPa 0,0 l/m 9,7 km/h (2 Bft) S-SO 157 0 min 0,0 UV-I 0 W/m 22,5 km/h (4 Bft)
23.01.2021 05:25 1,7 C 1,7 C 1,7 C 89 % 997,7 hPa 0,0 l/m 9,7 km/h (2 Bft) S-SO 157 0 min 0,0 UV-I 0 W/m 22,5 km/h (4 Bft)
23.01.2021 05:20 1,7 C 1,6 C 1,7 C 89 % 997,7 hPa 0,0 l/m 11,3 km/h (2 Bft) S-SO 157 0 min 0,0 UV-I 0 W/m 17,7 km/h (3 Bft)
23.01.2021 05:15 1,7 C 1,6 C 1,7 C 89 % 997,6 hPa 0,0 l/m 9,7 km/h (2 Bft) S-SO 157 0 min 0,0 UV-I 0 W/m 17,7 km/h (3 Bft)
23.01.2021 05:10 1,6 C 1,6 C 1,7 C 89 % 997,7 hPa 0,0 l/m 8,0 km/h (2 Bft) S-SO 157 0 min 0,0 UV-I 0 W/m 14,5 km/h (3 Bft)
23.01.2021 05:05 1,6 C 1,6 C 1,6 C 89 % 997,7 hPa 0,0 l/m 6,4 km/h (2 Bft) S-SO 157 0 min 0,0 UV-I 0 W/m 11,3 km/h (2 Bft)
23.01.2021 05:00 1,6 C 1,6 C 1,6 C 89 % 997,7 hPa 0,0 l/m 6,4 km/h (2 Bft) S-SO 157 0 min 0,0 UV-I 0 W/m 11,3 km/h (2 Bft)
23.01.2021 04:55 1,6 C 1,6 C 1,6 C 89 % 997,8 hPa 0,0 l/m 8,0 km/h (2 Bft) S-SO 157 0 min 0,0 UV-I 0 W/m 11,3 km/h (2 Bft)
23.01.2021 04:50 1,6 C 1,6 C 1,7 C 89 % 997,8 hPa 0,0 l/m 6,4 km/h (2 Bft) S 180 0 min 0,0 UV-I 0 W/m 11,3 km/h (2 Bft)
23.01.2021 04:45 1,7 C 1,6 C 1,7 C 89 % 997,9 hPa 0,0 l/m 6,4 km/h (2 Bft) S 180 0 min 0,0 UV-I 0 W/m 11,3 km/h (2 Bft)
23.01.2021 04:40 1,7 C 1,6 C 1,7 C 89 % 997,8 hPa 0,0 l/m 8,0 km/h (2 Bft) S-SO 157 0 min 0,0 UV-I 0 W/m 12,9 km/h (3 Bft)
23.01.2021 04:35 1,7 C 1,6 C 1,7 C 89 % 997,9 hPa 0,0 l/m 6,4 km/h (2 Bft) S-SO 157 0 min 0,0 UV-I 0 W/m 12,9 km/h (3 Bft)
23.01.2021 04:30 1,7 C 1,6 C 1,7 C 89 % 998,0 hPa 0,0 l/m 6,4 km/h (2 Bft) S-SO 157 0 min 0,0 UV-I 0 W/m 12,9 km/h (3 Bft)
23.01.2021 04:25 1,6 C 1,6 C 1,6 C 89 % 998,1 hPa 0,0 l/m 6,4 km/h (2 Bft) S-SO 157 0 min 0,0 UV-I 0 W/m 12,9 km/h (3 Bft)
23.01.2021 04:20 1,6 C 1,6 C 1,6 C 89 % 998,2 hPa 0,0 l/m 6,4 km/h (2 Bft) S-SO 157 0 min 0,0 UV-I 0 W/m 12,9 km/h (3 Bft)
23.01.2021 04:15 1,6 C 1,6 C 1,6 C 89 % 998,1 hPa 0,0 l/m 6,4 km/h (2 Bft) S-SO 157 0 min 0,0 UV-I 0 W/m 12,9 km/h (3 Bft)
23.01.2021 04:10 1,6 C 1,6 C 1,6 C 89 % 998,1 hPa 0,0 l/m 4,8 km/h (1 Bft) S-SO 157 0 min 0,0 UV-I 0 W/m 11,3 km/h (2 Bft)
23.01.2021 04:05 1,6 C 1,6 C 1,6 C 89 % 998,2 hPa 0,0 l/m 6,4 km/h (2 Bft) S-SO 157 0 min 0,0 UV-I 0 W/m 14,5 km/h (3 Bft)
23.01.2021 04:00 1,6 C 1,6 C 1,6 C 89 % 998,2 hPa 0,0 l/m 4,8 km/h (1 Bft) S-SO 157 0 min 0,0 UV-I 0 W/m 11,3 km/h (2 Bft)
23.01.2021 03:55 1,6 C 1,6 C 1,6 C 89 % 998,3 hPa 0,0 l/m 6,4 km/h (2 Bft) S-SO 157 0 min 0,0 UV-I 0 W/m 9,7 km/h (2 Bft)
23.01.2021 03:50 1,6 C 1,6 C 1,6 C 89 % 998,3 hPa 0,0 l/m 6,4 km/h (2 Bft) S-SO 157 0 min 0,0 UV-I 0 W/m 11,3 km/h (2 Bft)
23.01.2021 03:45 1,6 C 1,6 C 1,6 C 89 % 998,3 hPa 0,0 l/m 6,4 km/h (2 Bft) S-SO 157 0 min 0,0 UV-I 0 W/m 11,3 km/h (2 Bft)
23.01.2021 03:40 1,6 C 1,6 C 1,6 C 89 % 998,3 hPa 0,0 l/m 4,8 km/h (1 Bft) S-SO 157 0 min 0,0 UV-I 0 W/m 11,3 km/h (2 Bft)
23.01.2021 03:35 1,6 C 1,6 C 1,6 C 89 % 998,2 hPa 0,0 l/m 4,8 km/h (1 Bft) SO 135 0 min 0,0 UV-I 0 W/m 9,7 km/h (2 Bft)
23.01.2021 03:30 1,6 C 1,6 C 1,7 C 89 % 998,2 hPa 0,0 l/m 1,6 km/h (1 Bft) SO 135 0 min 0,0 UV-I 0 W/m 9,7 km/h (2 Bft)
23.01.2021 03:25 1,6 C 1,6 C 1,7 C 89 % 998,1 hPa 0,0 l/m 3,2 km/h (1 Bft) SO 135 0 min 0,0 UV-I 0 W/m 6,4 km/h (2 Bft)
23.01.2021 03:20 1,7 C 1,7 C 1,8 C 89 % 998,1 hPa 0,0 l/m 1,6 km/h (1 Bft) O-SO 112 0 min 0,0 UV-I 0 W/m 6,4 km/h (2 Bft)
23.01.2021 03:15 1,7 C 1,7 C 1,8 C 89 % 998,2 hPa 0,0 l/m 1,6 km/h (1 Bft) SO 135 0 min 0,0 UV-I 0 W/m 4,8 km/h (1 Bft)
23.01.2021 03:10 1,8 C 1,8 C 1,8 C 89 % 998,2 hPa 0,0 l/m 3,2 km/h (1 Bft) SO 135 0 min 0,0 UV-I 0 W/m 11,3 km/h (2 Bft)
23.01.2021 03:05 1,8 C 1,8 C 1,8 C 89 % 998,3 hPa 0,0 l/m 3,2 km/h (1 Bft) SO 135 0 min 0,0 UV-I 0 W/m 9,7 km/h (2 Bft)
23.01.2021 03:00 1,8 C 1,8 C 1,9 C 88 % 998,4 hPa 0,0 l/m 3,2 km/h (1 Bft) SO 135 0 min 0,0 UV-I 0 W/m 8,0 km/h (2 Bft)
23.01.2021 02:55 1,9 C 1,9 C 1,9 C 88 % 998,4 hPa 0,0 l/m 3,2 km/h (1 Bft) SO 135 0 min 0,0 UV-I 0 W/m 11,3 km/h (2 Bft)
23.01.2021 02:50 1,9 C 1,9 C 1,9 C 88 % 998,3 hPa 0,0 l/m 3,2 km/h (1 Bft) SO 135 0 min 0,0 UV-I 0 W/m 11,3 km/h (2 Bft)
23.01.2021 02:45 1,9 C 1,9 C 1,9 C 88 % 998,5 hPa 0,0 l/m 4,8 km/h (1 Bft) SO 135 0 min 0,0 UV-I 0 W/m 9,7 km/h (2 Bft)
23.01.2021 02:40 1,9 C 1,9 C 1,9 C 88 % 998,5 hPa 0,0 l/m 6,4 km/h (2 Bft) S-SO 157 0 min 0,0 UV-I 0 W/m 11,3 km/h (2 Bft)
23.01.2021 02:35 1,9 C 1,8 C 1,9 C 88 % 998,5 hPa 0,0 l/m 6,4 km/h (2 Bft) S-SO 157 0 min 0,0 UV-I 0 W/m 12,9 km/h (3 Bft)
23.01.2021 02:30 1,9 C 1,8 C 1,9 C 88 % 998,4 hPa 0,0 l/m 6,4 km/h (2 Bft) S-SO 157 0 min 0,0 UV-I 0 W/m 9,7 km/h (2 Bft)
23.01.2021 02:25 1,9 C 1,8 C 1,9 C 88 % 998,4 hPa 0,0 l/m 6,4 km/h (2 Bft) S-SO 157 0 min 0,0 UV-I 0 W/m 11,3 km/h (2 Bft)
23.01.2021 02:20 1,8 C 1,8 C 1,8 C 88 % 998,4 hPa 0,0 l/m 6,4 km/h (2 Bft) S-SO 157 0 min 0,0 UV-I 0 W/m 9,7 km/h (2 Bft)
23.01.2021 02:15 1,8 C 1,7 C 1,8 C 89 % 998,3 hPa 0,0 l/m 6,4 km/h (2 Bft) S-SO 157 0 min 0,0 UV-I 0 W/m 11,3 km/h (2 Bft)
23.01.2021 02:10 1,8 C 1,7 C 1,8 C 89 % 998,3 hPa 0,0 l/m 6,4 km/h (2 Bft) S 180 0 min 0,0 UV-I 0 W/m 11,3 km/h (2 Bft)
23.01.2021 02:05 1,7 C 1,7 C 1,8 C 89 % 998,3 hPa 0,0 l/m 4,8 km/h (1 Bft) S 180 0 min 0,0 UV-I 0 W/m 11,3 km/h (2 Bft)
23.01.2021 02:00 1,7 C 1,7 C 1,7 C 89 % 998,3 hPa 0,0 l/m 6,4 km/h (2 Bft) S-SO 157 0 min 0,0 UV-I 0 W/m 9,7 km/h (2 Bft)
23.01.2021 01:55 1,7 C 1,7 C 1,7 C 89 % 998,2 hPa 0,0 l/m 6,4 km/h (2 Bft) S-SO 157 0 min 0,0 UV-I 0 W/m 11,3 km/h (2 Bft)
23.01.2021 01:50 1,7 C 1,7 C 1,7 C 89 % 998,2 hPa 0,0 l/m 6,4 km/h (2 Bft) S-SO 157 0 min 0,0 UV-I 0 W/m 9,7 km/h (2 Bft)
23.01.2021 01:45 1,7 C 1,6 C 1,7 C 89 % 998,2 hPa 0,0 l/m 6,4 km/h (2 Bft) S-SO 157 0 min 0,0 UV-I 0 W/m 9,7 km/h (2 Bft)
23.01.2021 01:40 1,7 C 1,7 C 1,7 C 89 % 998,2 hPa 0,0 l/m 6,4 km/h (2 Bft) S-SO 157 0 min 0,0 UV-I 0 W/m 11,3 km/h (2 Bft)
23.01.2021 01:35 1,7 C 1,7 C 1,7 C 89 % 998,3 hPa 0,0 l/m 6,4 km/h (2 Bft) S-SO 157 0 min 0,0 UV-I 0 W/m 9,7 km/h (2 Bft)
23.01.2021 01:30 1,7 C 1,7 C 1,7 C 89 % 998,3 hPa 0,0 l/m 6,4 km/h (2 Bft) S-SO 157 0 min 0,0 UV-I 0 W/m 11,3 km/h (2 Bft)
23.01.2021 01:25 1,7 C 1,7 C 1,7 C 89 % 998,2 hPa 0,0 l/m 6,4 km/h (2 Bft) S-SO 157 0 min 0,0 UV-I 0 W/m 9,7 km/h (2 Bft)
23.01.2021 01:20 1,7 C 1,6 C 1,7 C 89 % 998,3 hPa 0,0 l/m 4,8 km/h (1 Bft) SO 135 0 min 0,0 UV-I 0 W/m 9,7 km/h (2 Bft)
23.01.2021 01:15 1,6 C 1,6 C 1,7 C 88 % 998,2 hPa 0,0 l/m 3,2 km/h (1 Bft) SO 135 0 min 0,0 UV-I 0 W/m 6,4 km/h (2 Bft)
23.01.2021 01:10 1,7 C 1,7 C 1,7 C 88 % 998,2 hPa 0,0 l/m 3,2 km/h (1 Bft) S-SO 157 0 min 0,0 UV-I 0 W/m 8,0 km/h (2 Bft)
23.01.2021 01:05 1,6 C 1,6 C 1,7 C 89 % 998,3 hPa 0,0 l/m 4,8 km/h (1 Bft) S-SO 157 0 min 0,0 UV-I 0 W/m 8,0 km/h (2 Bft)
23.01.2021 01:00 1,7 C 1,6 C 1,7 C 88 % 998,3 hPa 0,0 l/m 3,2 km/h (1 Bft) S-SO 157 0 min 0,0 UV-I 0 W/m 8,0 km/h (2 Bft)
23.01.2021 00:55 1,7 C 1,6 C 1,7 C 88 % 998,3 hPa 0,0 l/m 4,8 km/h (1 Bft) S-SO 157 0 min 0,0 UV-I 0 W/m 9,7 km/h (2 Bft)
23.01.2021 00:50 1,7 C 1,6 C 1,7 C 88 % 998,2 hPa 0,0 l/m 4,8 km/h (1 Bft) S-SO 157 0 min 0,0 UV-I 0 W/m 9,7 km/h (2 Bft)
23.01.2021 00:45 1,6 C 1,6 C 1,7 C 88 % 998,2 hPa 0,0 l/m 4,8 km/h (1 Bft) S-SO 157 0 min 0,0 UV-I 0 W/m 8,0 km/h (2 Bft)
23.01.2021 00:40 1,6 C 1,6 C 1,7 C 88 % 998,3 hPa 0,0 l/m 4,8 km/h (1 Bft) S-SO 157 0 min 0,0 UV-I 0 W/m 8,0 km/h (2 Bft)
23.01.2021 00:35 1,6 C 1,6 C 1,7 C 89 % 998,3 hPa 0,0 l/m 6,4 km/h (2 Bft) S-SO 157 0 min 0,0 UV-I 0 W/m 8,0 km/h (2 Bft)
23.01.2021 00:30 1,6 C 1,6 C 1,7 C 89 % 998,3 hPa 0,0 l/m 4,8 km/h (1 Bft) S-SO 157 0 min 0,0 UV-I 0 W/m 9,7 km/h (2 Bft)
23.01.2021 00:25 1,6 C 1,6 C 1,6 C 89 % 998,4 hPa 0,0 l/m 6,4 km/h (2 Bft) S-SO 157 0 min 0,0 UV-I 0 W/m 9,7 km/h (2 Bft)
23.01.2021 00:20 1,6 C 1,6 C 1,6 C 89 % 998,4 hPa 0,0 l/m 3,2 km/h (1 Bft) SO 135 0 min 0,0 UV-I 0 W/m 8,0 km/h (2 Bft)
23.01.2021 00:15 1,6 C 1,5 C 1,6 C 89 % 998,4 hPa 0,0 l/m 3,2 km/h (1 Bft) SO 135 0 min 0,0 UV-I 0 W/m 8,0 km/h (2 Bft)
23.01.2021 00:10 1,6 C 1,4 C 1,6 C 89 % 998,3 hPa 0,0 l/m 6,4 km/h (2 Bft) S-SO 157 0 min 0,0 UV-I 0 W/m 9,7 km/h (2 Bft)
23.01.2021 00:05 1,4 C 1,4 C 1,6 C 89 % 998,3 hPa 0,0 l/m 4,8 km/h (1 Bft) S-SO 157 0 min 0,0 UV-I 0 W/m 9,7 km/h (2 Bft)
23.01.2021 00:00 1,4 C 1,4 C 1,5 C 89 % 998,3 hPa 0,0 l/m 4,8 km/h (1 Bft) SO 135 0 min 0,0 UV-I 0 W/m 8,0 km/h (2 Bft)
_ Min-Zeit 00:10 00:00 00:00 14:50 15:10 - 15:55 - - - - - 15:55
Minimum _ 1,4 C 1,4 C 1,5 C 72 % 994,8 hPa - 0,0 km/h (0 Bft) - - - - - 1,6 km/h (1 Bft)
_ Max-Zeit 14:50 14:55 14:50 00:00 02:35 00:00 10:05 - - 12:45 12:40 12:45 05:25
Maximum _ 7,1 C 7,1 C 7,1 C 89 % 998,5 hPa 0,0 l/m 12,9 km/h
S-SO (3 Bft)
- - 5 min 0,9 UV-I 301 W/m 22,5 km/h
S-SO (4 Bft)
Durchschnitt _ 3,3 C 3,3 C 3,4 C 85 % 997,2 hPa #0,0 l/m 7,1 km/h (2 Bft) S-SO - #1:05 h 0,6 UV-I 82 W/m 13,6 km/h (3 Bft)